Terminal Aerodrome Forecast
Issued by NWS Boston, MA

Home | Current Version | Previous Version | Text Only | Print | Product List | Glossary On
Versions: 1 2 3 4 5 6 7 8 9 10 11 12 13 14 15 16 17 18 19 20 21 22 23 24 25 26 27 28 29 30 31 32 33 34 35 36 37 38 39 40 41
000
FTUS41 KBOX 032340
TAFPVD
TAF
KPVD 032340Z 0400/0424 18007KT 1SM -SN BR OVC015
     FM040200 19008KT 1SM -SNPL BR OVC015
     FM040400 20008KT 5SM -FZRAPL BR OVC008 WS020/20040KT
     FM040600 20009KT 6SM -RA BR OVC008 WS020/21045KT
     FM040900 22009KT 6SM -RA BR OVC008
     FM041100 24009KT P6SM OVC008
     FM041500 25008KT P6SM OVC025=

USA.gov is the U.S. government's official web portal to all federal, state and local government web resources and services.